sensor_id;sensor_type;location;lat;lon;timestamp;temperature;humidity
6186;DHT22;3126;52.738;8.316;2022-09-09T00:06:28;14.20;99.90
6186;DHT22;3126;52.738;8.316;2022-09-09T00:11:36;14.20;99.90
6186;DHT22;3126;52.738;8.316;2022-09-09T00:16:45;14.20;99.90
6186;DHT22;3126;52.738;8.316;2022-09-09T00:22:07;14.20;99.90
6186;DHT22;3126;52.738;8.316;2022-09-09T00:27:30;14.30;99.90
6186;DHT22;3126;52.738;8.316;2022-09-09T00:32:33;14.20;99.90
6186;DHT22;3126;52.738;8.316;2022-09-09T00:37:36;14.10;99.90
6186;DHT22;3126;52.738;8.316;2022-09-09T00:42:42;14.00;99.90
6186;DHT22;3126;52.738;8.316;2022-09-09T00:47:50;14.00;99.90
6186;DHT22;3126;52.738;8.316;2022-09-09T00:58:07;13.80;99.90
6186;DHT22;3126;52.738;8.316;2022-09-09T01:03:22;13.80;99.90
6186;DHT22;3126;52.738;8.316;2022-09-09T01:13:58;13.70;99.90
6186;DHT22;3126;52.738;8.316;2022-09-09T01:19:00;13.60;99.90
6186;DHT22;3126;52.738;8.316;2022-09-09T01:24:36;13.60;99.90
6186;DHT22;3126;52.738;8.316;2022-09-09T01:29:39;13.60;99.90
6186;DHT22;3126;52.738;8.316;2022-09-09T01:34:40;13.50;99.90
6186;DHT22;3126;52.738;8.316;2022-09-09T01:39:43;13.50;99.90
6186;DHT22;3126;52.738;8.316;2022-09-09T01:44:44;13.40;99.90
6186;DHT22;3126;52.738;8.316;2022-09-09T01:49:45;13.30;99.90
6186;DHT22;3126;52.738;8.316;2022-09-09T01:54:45;13.30;99.90
6186;DHT22;3126;52.738;8.316;2022-09-09T02:05:39;13.30;99.90
6186;DHT22;3126;52.738;8.316;2022-09-09T02:15:55;13.40;99.90
6186;DHT22;3126;52.738;8.316;2022-09-09T02:20:59;13.40;99.90
6186;DHT22;3126;52.738;8.316;2022-09-09T02:26:00;13.40;99.90
6186;DHT22;3126;52.738;8.316;2022-09-09T02:31:02;13.40;99.90
6186;DHT22;3126;52.738;8.316;2022-09-09T02:36:05;13.40;99.90
6186;DHT22;3126;52.738;8.316;2022-09-09T02:41:07;13.40;99.90
6186;DHT22;3126;52.738;8.316;2022-09-09T02:51:30;13.50;99.90
6186;DHT22;3126;52.738;8.316;2022-09-09T02:56:38;13.50;99.90
6186;DHT22;3126;52.738;8.316;2022-09-09T03:01:39;13.60;99.90
6186;DHT22;3126;52.738;8.316;2022-09-09T03:06:40;13.60;99.90
6186;DHT22;3126;52.738;8.316;2022-09-09T03:11:41;13.60;99.90
6186;DHT22;3126;52.738;8.316;2022-09-09T03:16:41;13.70;99.90
6186;DHT22;3126;52.738;8.316;2022-09-09T03:21:43;13.70;99.90
6186;DHT22;3126;52.738;8.316;2022-09-09T03:26:43;13.70;99.90
6186;DHT22;3126;52.738;8.316;2022-09-09T03:31:47;13.70;99.90
6186;DHT22;3126;52.738;8.316;2022-09-09T03:36:47;13.70;99.90
6186;DHT22;3126;52.738;8.316;2022-09-09T03:41:49;13.70;99.90
6186;DHT22;3126;52.738;8.316;2022-09-09T03:46:50;13.60;99.90
6186;DHT22;3126;52.738;8.316;2022-09-09T03:51:50;13.60;99.90
6186;DHT22;3126;52.738;8.316;2022-09-09T03:56:51;13.50;99.90
6186;DHT22;3126;52.738;8.316;2022-09-09T04:01:52;13.40;99.90
6186;DHT22;3126;52.738;8.316;2022-09-09T04:06:53;13.40;99.90
6186;DHT22;3126;52.738;8.316;2022-09-09T04:11:54;13.40;99.90
6186;DHT22;3126;52.738;8.316;2022-09-09T04:16:55;13.40;99.90
6186;DHT22;3126;52.738;8.316;2022-09-09T04:21:57;13.40;99.90
6186;DHT22;3126;52.738;8.316;2022-09-09T04:26:59;13.40;99.90
6186;DHT22;3126;52.738;8.316;2022-09-09T04:31:59;13.40;99.90
6186;DHT22;3126;52.738;8.316;2022-09-09T04:37:00;13.50;99.90
6186;DHT22;3126;52.738;8.316;2022-09-09T04:42:01;13.50;99.90
6186;DHT22;3126;52.738;8.316;2022-09-09T04:47:02;13.40;99.90
6186;DHT22;3126;52.738;8.316;2022-09-09T04:52:03;13.40;99.90
6186;DHT22;3126;52.738;8.316;2022-09-09T04:57:04;13.30;99.90
6186;DHT22;3126;52.738;8.316;2022-09-09T05:02:05;13.30;99.90
6186;DHT22;3126;52.738;8.316;2022-09-09T05:07:06;13.40;99.90
6186;DHT22;3126;52.738;8.316;2022-09-09T05:12:07;13.40;99.90
6186;DHT22;3126;52.738;8.316;2022-09-09T05:17:08;13.40;99.90
6186;DHT22;3126;52.738;8.316;2022-09-09T05:22:09;13.40;99.90
6186;DHT22;3126;52.738;8.316;2022-09-09T05:27:10;13.50;99.90
6186;DHT22;3126;52.738;8.316;2022-09-09T05:32:12;13.50;99.90
6186;DHT22;3126;52.738;8.316;2022-09-09T05:37:15;13.60;99.90
6186;DHT22;3126;52.738;8.316;2022-09-09T05:42:17;13.60;99.90
6186;DHT22;3126;52.738;8.316;2022-09-09T05:47:17;13.70;99.90
6186;DHT22;3126;52.738;8.316;2022-09-09T05:52:18;13.70;99.90
6186;DHT22;3126;52.738;8.316;2022-09-09T05:57:18;13.80;99.90
6186;DHT22;3126;52.738;8.316;2022-09-09T06:02:19;13.90;99.90
6186;DHT22;3126;52.738;8.316;2022-09-09T06:07:20;14.00;99.90
6186;DHT22;3126;52.738;8.316;2022-09-09T06:12:20;14.10;99.90
6186;DHT22;3126;52.738;8.316;2022-09-09T06:17:21;14.20;99.90
6186;DHT22;3126;52.738;8.316;2022-09-09T06:22:21;14.40;99.90
6186;DHT22;3126;52.738;8.316;2022-09-09T06:27:22;14.40;99.90
6186;DHT22;3126;52.738;8.316;2022-09-09T06:32:23;14.40;99.90
6186;DHT22;3126;52.738;8.316;2022-09-09T06:37:23;14.40;99.90
6186;DHT22;3126;52.738;8.316;2022-09-09T06:42:24;14.50;99.90
6186;DHT22;3126;52.738;8.316;2022-09-09T06:47:25;14.60;99.90
6186;DHT22;3126;52.738;8.316;2022-09-09T06:52:25;14.80;99.90
6186;DHT22;3126;52.738;8.316;2022-09-09T06:57:26;15.00;99.90
6186;DHT22;3126;52.738;8.316;2022-09-09T07:02:26;15.10;99.90
6186;DHT22;3126;52.738;8.316;2022-09-09T07:07:27;15.30;99.90
6186;DHT22;3126;52.738;8.316;2022-09-09T07:12:27;15.50;99.90
6186;DHT22;3126;52.738;8.316;2022-09-09T07:17:28;15.60;99.90
6186;DHT22;3126;52.738;8.316;2022-09-09T07:22:29;15.80;99.90
6186;DHT22;3126;52.738;8.316;2022-09-09T07:27:30;15.90;99.30
6186;DHT22;3126;52.738;8.316;2022-09-09T07:32:30;16.10;98.60
6186;DHT22;3126;52.738;8.316;2022-09-09T07:37:31;16.20;97.10
6186;DHT22;3126;52.738;8.316;2022-09-09T07:42:31;16.20;95.50
6186;DHT22;3126;52.738;8.316;2022-09-09T07:47:32;16.30;95.20
6186;DHT22;3126;52.738;8.316;2022-09-09T07:52:33;16.30;95.40
6186;DHT22;3126;52.738;8.316;2022-09-09T07:57:34;16.30;95.30
6186;DHT22;3126;52.738;8.316;2022-09-09T08:02:35;16.50;95.50
6186;DHT22;3126;52.738;8.316;2022-09-09T08:07:35;16.70;93.30
6186;DHT22;3126;52.738;8.316;2022-09-09T08:12:36;16.90;93.00
6186;DHT22;3126;52.738;8.316;2022-09-09T08:17:36;17.00;91.60
6186;DHT22;3126;52.738;8.316;2022-09-09T08:22:38;17.30;91.80
6186;DHT22;3126;52.738;8.316;2022-09-09T08:27:38;17.50;91.10
6186;DHT22;3126;52.738;8.316;2022-09-09T08:32:39;17.70;89.30
6186;DHT22;3126;52.738;8.316;2022-09-09T08:37:39;17.80;88.40
6186;DHT22;3126;52.738;8.316;2022-09-09T08:42:52;18.30;87.10
6186;DHT22;3126;52.738;8.316;2022-09-09T08:58:17;18.70;83.40
6186;DHT22;3126;52.738;8.316;2022-09-09T09:14:19;19.40;78.00
6186;DHT22;3126;52.738;8.316;2022-09-09T09:19:23;19.40;79.80
6186;DHT22;3126;52.738;8.316;2022-09-09T09:24:40;19.50;78.80
6186;DHT22;3126;52.738;8.316;2022-09-09T09:29:44;19.50;78.40
6186;DHT22;3126;52.738;8.316;2022-09-09T09:34:55;19.80;78.30
6186;DHT22;3126;52.738;8.316;2022-09-09T09:40:08;20.00;76.70
6186;DHT22;3126;52.738;8.316;2022-09-09T09:45:35;20.10;74.40
6186;DHT22;3126;52.738;8.316;2022-09-09T09:51:08;20.00;74.70
6186;DHT22;3126;52.738;8.316;2022-09-09T09:56:14;19.90;75.00
6186;DHT22;3126;52.738;8.316;2022-09-09T10:01:34;20.30;75.20
6186;DHT22;3126;52.738;8.316;2022-09-09T10:06:36;20.60;71.60
6186;DHT22;3126;52.738;8.316;2022-09-09T10:27:32;20.80;70.80
6186;DHT22;3126;52.738;8.316;2022-09-09T10:38:16;20.50;74.00
6186;DHT22;3126;52.738;8.316;2022-09-09T10:43:42;20.90;70.10
6186;DHT22;3126;52.738;8.316;2022-09-09T11:04:35;21.90;64.90
6186;DHT22;3126;52.738;8.316;2022-09-09T11:09:44;21.40;65.20
6186;DHT22;3126;52.738;8.316;2022-09-09T11:15:06;21.30;67.10
6186;DHT22;3126;52.738;8.316;2022-09-09T11:20:11;21.40;65.80
6186;DHT22;3126;52.738;8.316;2022-09-09T11:25:35;21.70;62.40
6186;DHT22;3126;52.738;8.316;2022-09-09T11:41:02;21.80;61.90
6186;DHT22;3126;52.738;8.316;2022-09-09T11:46:04;21.50;63.40
6186;DHT22;3126;52.738;8.316;2022-09-09T11:51:10;21.70;64.60
6186;DHT22;3126;52.738;8.316;2022-09-09T11:56:12;22.20;65.00
6186;DHT22;3126;52.738;8.316;2022-09-09T12:01:36;22.70;60.30
6186;DHT22;3126;52.738;8.316;2022-09-09T12:06:53;22.90;60.70
6186;DHT22;3126;52.738;8.316;2022-09-09T12:17:26;23.00;60.80
6186;DHT22;3126;52.738;8.316;2022-09-09T12:28:16;22.60;61.60
6186;DHT22;3126;52.738;8.316;2022-09-09T12:33:18;22.50;62.50
6186;DHT22;3126;52.738;8.316;2022-09-09T12:38:46;22.40;62.80
6186;DHT22;3126;52.738;8.316;2022-09-09T12:43:46;22.20;64.50
6186;DHT22;3126;52.738;8.316;2022-09-09T12:48:47;21.90;66.10
6186;DHT22;3126;52.738;8.316;2022-09-09T12:53:47;21.50;64.50
6186;DHT22;3126;52.738;8.316;2022-09-09T12:58:50;21.10;60.30
6186;DHT22;3126;52.738;8.316;2022-09-09T13:03:52;20.80;60.70
6186;DHT22;3126;52.738;8.316;2022-09-09T13:08:54;20.40;62.40
6186;DHT22;3126;52.738;8.316;2022-09-09T13:13:57;20.80;66.60
6186;DHT22;3126;52.738;8.316;2022-09-09T13:18:58;21.00;65.70
6186;DHT22;3126;52.738;8.316;2022-09-09T13:23:59;21.10;67.10
6186;DHT22;3126;52.738;8.316;2022-09-09T13:29:17;21.30;65.00
6186;DHT22;3126;52.738;8.316;2022-09-09T13:34:32;21.50;64.50
6186;DHT22;3126;52.738;8.316;2022-09-09T13:39:37;21.70;64.40
6186;DHT22;3126;52.738;8.316;2022-09-09T13:44:39;22.00;62.00
6186;DHT22;3126;52.738;8.316;2022-09-09T13:49:42;21.90;62.40
6186;DHT22;3126;52.738;8.316;2022-09-09T13:54:46;21.80;62.60
6186;DHT22;3126;52.738;8.316;2022-09-09T13:59:48;21.90;60.90
6186;DHT22;3126;52.738;8.316;2022-09-09T14:04:49;22.20;61.80
6186;DHT22;3126;52.738;8.316;2022-09-09T14:09:51;22.60;60.50
6186;DHT22;3126;52.738;8.316;2022-09-09T14:14:52;22.90;59.60
6186;DHT22;3126;52.738;8.316;2022-09-09T14:19:53;22.90;55.20
6186;DHT22;3126;52.738;8.316;2022-09-09T14:24:53;22.60;54.60
6186;DHT22;3126;52.738;8.316;2022-09-09T14:29:55;22.50;55.40
6186;DHT22;3126;52.738;8.316;2022-09-09T14:34:55;22.50;54.80
6186;DHT22;3126;52.738;8.316;2022-09-09T14:39:57;22.40;54.90
6186;DHT22;3126;52.738;8.316;2022-09-09T14:44:57;22.40;56.20
6186;DHT22;3126;52.738;8.316;2022-09-09T14:49:58;22.40;55.90
6186;DHT22;3126;52.738;8.316;2022-09-09T14:54:58;22.30;55.60
6186;DHT22;3126;52.738;8.316;2022-09-09T14:59:59;22.30;54.10
6186;DHT22;3126;52.738;8.316;2022-09-09T15:04:59;22.20;56.10
6186;DHT22;3126;52.738;8.316;2022-09-09T15:10:00;22.30;56.80
6186;DHT22;3126;52.738;8.316;2022-09-09T15:15:01;22.30;56.40
6186;DHT22;3126;52.738;8.316;2022-09-09T15:20:03;22.10;56.70
6186;DHT22;3126;52.738;8.316;2022-09-09T15:25:06;21.90;57.90
6186;DHT22;3126;52.738;8.316;2022-09-09T15:30:08;21.80;64.20
6186;DHT22;3126;52.738;8.316;2022-09-09T15:35:10;21.40;65.80
6186;DHT22;3126;52.738;8.316;2022-09-09T15:40:11;21.30;64.30
6186;DHT22;3126;52.738;8.316;2022-09-09T15:45:11;21.30;64.30
6186;DHT22;3126;52.738;8.316;2022-09-09T15:50:12;21.30;64.90
6186;DHT22;3126;52.738;8.316;2022-09-09T15:55:13;21.10;64.10
6186;DHT22;3126;52.738;8.316;2022-09-09T16:00:14;20.10;61.20
6186;DHT22;3126;52.738;8.316;2022-09-09T16:05:15;19.40;66.90
6186;DHT22;3126;52.738;8.316;2022-09-09T16:10:16;18.60;74.60
6186;DHT22;3126;52.738;8.316;2022-09-09T16:15:16;17.80;80.10
6186;DHT22;3126;52.738;8.316;2022-09-09T16:20:17;17.40;83.40
6186;DHT22;3126;52.738;8.316;2022-09-09T16:25:19;17.20;82.80
6186;DHT22;3126;52.738;8.316;2022-09-09T16:30:19;17.10;85.50
6186;DHT22;3126;52.738;8.316;2022-09-09T16:35:20;17.00;87.80
6186;DHT22;3126;52.738;8.316;2022-09-09T16:40:22;16.90;87.30
6186;DHT22;3126;52.738;8.316;2022-09-09T16:45:23;16.90;87.50
6186;DHT22;3126;52.738;8.316;2022-09-09T16:50:23;17.00;88.50
6186;DHT22;3126;52.738;8.316;2022-09-09T16:55:24;16.90;88.80
6186;DHT22;3126;52.738;8.316;2022-09-09T17:00:26;16.90;89.80
6186;DHT22;3126;52.738;8.316;2022-09-09T17:05:27;16.90;91.80
6186;DHT22;3126;52.738;8.316;2022-09-09T17:10:28;16.70;91.20
6186;DHT22;3126;52.738;8.316;2022-09-09T17:15:29;16.60;92.10
6186;DHT22;3126;52.738;8.316;2022-09-09T17:20:30;16.50;91.60
6186;DHT22;3126;52.738;8.316;2022-09-09T17:25:31;16.50;92.50
6186;DHT22;3126;52.738;8.316;2022-09-09T17:30:35;16.40;93.60
6186;DHT22;3126;52.738;8.316;2022-09-09T17:35:37;16.40;93.70
6186;DHT22;3126;52.738;8.316;2022-09-09T17:40:37;16.30;95.10
6186;DHT22;3126;52.738;8.316;2022-09-09T17:45:38;16.30;95.30
6186;DHT22;3126;52.738;8.316;2022-09-09T17:50:40;16.20;95.80
6186;DHT22;3126;52.738;8.316;2022-09-09T17:55:40;16.20;95.70
6186;DHT22;3126;52.738;8.316;2022-09-09T18:00:41;16.10;95.30
6186;DHT22;3126;52.738;8.316;2022-09-09T18:05:42;16.10;95.00
6186;DHT22;3126;52.738;8.316;2022-09-09T18:10:51;16.10;96.10
6186;DHT22;3126;52.738;8.316;2022-09-09T18:15:53;16.00;96.90
6186;DHT22;3126;52.738;8.316;2022-09-09T18:21:06;16.00;96.20
6186;DHT22;3126;52.738;8.316;2022-09-09T18:26:11;15.90;96.70
6186;DHT22;3126;52.738;8.316;2022-09-09T18:31:14;15.80;96.80
6186;DHT22;3126;52.738;8.316;2022-09-09T18:36:17;15.80;96.20
6186;DHT22;3126;52.738;8.316;2022-09-09T18:41:45;15.80;95.90
6186;DHT22;3126;52.738;8.316;2022-09-09T18:46:47;15.70;96.30
6186;DHT22;3126;52.738;8.316;2022-09-09T18:51:48;15.60;96.70
6186;DHT22;3126;52.738;8.316;2022-09-09T18:56:49;15.60;97.50
6186;DHT22;3126;52.738;8.316;2022-09-09T19:01:51;15.60;98.00
6186;DHT22;3126;52.738;8.316;2022-09-09T19:06:53;15.50;97.40
6186;DHT22;3126;52.738;8.316;2022-09-09T19:11:58;15.50;97.60
6186;DHT22;3126;52.738;8.316;2022-09-09T19:16:59;15.50;98.00
6186;DHT22;3126;52.738;8.316;2022-09-09T19:22:00;15.50;98.10
6186;DHT22;3126;52.738;8.316;2022-09-09T19:27:04;15.50;98.20
6186;DHT22;3126;52.738;8.316;2022-09-09T19:32:05;15.50;98.20
6186;DHT22;3126;52.738;8.316;2022-09-09T19:37:06;15.50;98.70
6186;DHT22;3126;52.738;8.316;2022-09-09T19:42:07;15.50;99.30
6186;DHT22;3126;52.738;8.316;2022-09-09T19:47:07;15.40;99.60
6186;DHT22;3126;52.738;8.316;2022-09-09T19:52:08;15.40;99.80
6186;DHT22;3126;52.738;8.316;2022-09-09T19:57:08;15.40;99.90
6186;DHT22;3126;52.738;8.316;2022-09-09T20:02:12;15.40;99.70
6186;DHT22;3126;52.738;8.316;2022-09-09T20:07:14;15.40;99.50
6186;DHT22;3126;52.738;8.316;2022-09-09T20:12:15;15.30;99.10
6186;DHT22;3126;52.738;8.316;2022-09-09T20:17:16;15.30;99.30
6186;DHT22;3126;52.738;8.316;2022-09-09T20:22:16;15.20;99.30
6186;DHT22;3126;52.738;8.316;2022-09-09T20:27:17;15.20;99.30
6186;DHT22;3126;52.738;8.316;2022-09-09T20:32:17;15.20;99.60
6186;DHT22;3126;52.738;8.316;2022-09-09T20:37:18;15.20;99.20
6186;DHT22;3126;52.738;8.316;2022-09-09T20:42:20;15.20;98.70
6186;DHT22;3126;52.738;8.316;2022-09-09T20:47:20;15.20;98.70
6186;DHT22;3126;52.738;8.316;2022-09-09T20:52:21;15.20;98.90
6186;DHT22;3126;52.738;8.316;2022-09-09T20:57:22;15.20;98.00
6186;DHT22;3126;52.738;8.316;2022-09-09T21:02:23;15.20;98.30
6186;DHT22;3126;52.738;8.316;2022-09-09T21:07:24;15.20;98.00
6186;DHT22;3126;52.738;8.316;2022-09-09T21:12:24;15.10;97.10
6186;DHT22;3126;52.738;8.316;2022-09-09T21:17:25;15.10;97.00
6186;DHT22;3126;52.738;8.316;2022-09-09T21:22:26;15.00;96.50
6186;DHT22;3126;52.738;8.316;2022-09-09T21:27:26;14.90;96.10
6186;DHT22;3126;52.738;8.316;2022-09-09T21:32:27;14.90;95.90
6186;DHT22;3126;52.738;8.316;2022-09-09T21:37:27;14.80;96.40
6186;DHT22;3126;52.738;8.316;2022-09-09T21:42:28;14.80;96.40
6186;DHT22;3126;52.738;8.316;2022-09-09T21:47:29;14.70;96.30
6186;DHT22;3126;52.738;8.316;2022-09-09T21:52:29;14.70;96.60
6186;DHT22;3126;52.738;8.316;2022-09-09T21:57:30;14.60;96.30
6186;DHT22;3126;52.738;8.316;2022-09-09T22:02:30;14.60;96.70
6186;DHT22;3126;52.738;8.316;2022-09-09T22:07:32;14.60;96.50
6186;DHT22;3126;52.738;8.316;2022-09-09T22:12:32;14.60;97.40
6186;DHT22;3126;52.738;8.316;2022-09-09T22:17:34;14.50;96.70
6186;DHT22;3126;52.738;8.316;2022-09-09T22:22:34;14.50;97.10
6186;DHT22;3126;52.738;8.316;2022-09-09T22:27:35;14.50;97.40
6186;DHT22;3126;52.738;8.316;2022-09-09T22:32:35;14.50;97.50
6186;DHT22;3126;52.738;8.316;2022-09-09T22:37:36;14.50;97.50
6186;DHT22;3126;52.738;8.316;2022-09-09T22:42:37;14.50;97.70
6186;DHT22;3126;52.738;8.316;2022-09-09T22:47:37;14.50;97.60
6186;DHT22;3126;52.738;8.316;2022-09-09T22:52:41;14.50;97.60
6186;DHT22;3126;52.738;8.316;2022-09-09T22:57:42;14.40;98.00
6186;DHT22;3126;52.738;8.316;2022-09-09T23:02:43;14.40;98.30
6186;DHT22;3126;52.738;8.316;2022-09-09T23:07:43;14.50;98.30
6186;DHT22;3126;52.738;8.316;2022-09-09T23:12:44;14.40;98.10
6186;DHT22;3126;52.738;8.316;2022-09-09T23:17:46;14.40;98.80
6186;DHT22;3126;52.738;8.316;2022-09-09T23:22:46;14.40;98.80
6186;DHT22;3126;52.738;8.316;2022-09-09T23:27:47;14.40;99.40
6186;DHT22;3126;52.738;8.316;2022-09-09T23:32:48;14.40;99.40
6186;DHT22;3126;52.738;8.316;2022-09-09T23:37:48;14.40;99.90
6186;DHT22;3126;52.738;8.316;2022-09-09T23:42:49;14.50;99.90
6186;DHT22;3126;52.738;8.316;2022-09-09T23:47:50;14.50;99.90
6186;DHT22;3126;52.738;8.316;2022-09-09T23:52:50;14.50;99.90
6186;DHT22;3126;52.738;8.316;2022-09-09T23:57:51;14.50;99.80
